Data for 06/03/2016

Time Sea-Level Adjusted Pressure Absolute Pressure Temperature Relative Humidity Dew Point   
(mb) (inHg) (mb) (inHg) (C) (F) (%) (C) (F)
00:05 1022 30.18 851 25.13 14 57.1 46 2.5 36.4
00:10 1022 30.18 851 25.13 14.1 57.3 46 2.6 36.7
00:15 1022 30.18 851 25.13 14 57.1 46 2.7 36.9
00:20 1022 30.18 851 25.13 14 57.2 46 2.6 36.7
00:25 1022 30.18 851 25.13 14 57.2 47 2.9 37.1
00:30 1022 30.18 851 25.13 14 57.1 46 2.7 36.9
00:35 1022 30.18 851 25.13 13.9 56.9 46 2.6 36.7
00:40 1022 30.18 851 25.13 13.8 56.8 47 2.8 37.1
00:45 1022 30.18 851 25.13 13.7 56.7 48 3 37.3
00:50 1022 30.18 851 25.13 13.6 56.5 50 3.3 38
00:55 1022 30.18 851 25.13 13.4 56 49 3 37.4
01:00 1022 30.18 851 25.13 13.3 56 50 3.1 37.6
01:05 1022 30.18 851 25.13 13.3 56 49 3 37.4
01:10 1022 30.18 851 25.13 13.3 56 49 3 37.4
01:15 1022 30.18 851 25.13 13.4 56.1 48 2.8 37
01:20 1022 30.18 852 25.16 13.4 56.2 48 2.6 36.8
01:25 1022 30.18 852 25.16 13.5 56.3 48 2.9 37.3
01:30 1022 30.18 852 25.16 13.3 55.9 49 3 37.4
01:35 1023 30.21 852 25.16 13.2 55.8 49 2.9 37.2
01:40 1023 30.21 852 25.16 13.2 55.8 50 3.1 37.5
01:45 1023 30.21 852 25.16 13.1 55.6 50 2.9 37.2
01:50 1023 30.21 852 25.16 13.1 55.5 50 2.9 37.2
01:55 1023 30.21 852 25.16 13 55.3 50 3 37.3
02:00 1023 30.21 852 25.16 12.7 54.9 54 3.6 38.5
02:05 1023 30.21 852 25.16 12 53.7 57 3.8 38.8
02:10 1023 30.21 852 25.16 11.6 52.9 56 3.3 37.9
02:15 1023 30.21 852 25.16 11.7 53 56 3.2 37.7
02:20 1023 30.21 852 25.16 11.9 53.5 54 3 37.4
02:25 1023 30.21 852 25.16 12.1 53.8 53 3 37.3
02:30 1023 30.21 852 25.16 12.4 54.2 52 2.8 37.1
02:35 1023 30.21 852 25.16 12.4 54.3 53 3 37.4
02:40 1023 30.21 852 25.16 12.3 54.1 53 3.1 37.6
02:45 1023 30.21 852 25.16 12.2 54 53 3 37.3
02:50 1023 30.21 852 25.16 12.4 54.2 52 2.8 37
02:55 1023 30.21 853 25.19 12.5 54.5 51 2.8 37.1
03:00 1023 30.21 852 25.16 12.5 54.6 51 2.9 37.2
03:05 1023 30.21 853 25.19 12.5 54.6 52 2.9 37.2
03:10 1023 30.21 853 25.19 12.5 54.5 51 2.8 37.1
03:15 1023 30.21 852 25.16 12.5 54.5 51 2.7 36.9
03:20 1023 30.21 852 25.16 12.3 54.2 54 3.2 37.8
03:25 1023 30.21 852 25.16 11.8 53.2 55 3 37.4
03:30 1023 30.21 852 25.16 11.7 53.1 54 2.8 37.1
03:35 1023 30.21 852 25.16 11.8 53.2 54 2.8 37.1
03:40 1023 30.21 853 25.19 11.9 53.5 53 2.7 36.9
03:45 1023 30.21 853 25.19 12.1 53.8 53 2.8 37.1
03:50 1023 30.21 853 25.19 12.1 53.7 54 3 37.4
03:55 1024 30.24 853 25.19 11.9 53.5 54 3 37.3
04:00 1024 30.24 853 25.19 11.8 53.2 55 3 37.4
04:05 1024 30.24 853 25.19 11.6 53 55 3 37.5
04:10 1024 30.24 853 25.19 11.3 52.3 58 3.3 38
04:15 1024 30.24 853 25.19 10.6 51.1 61 3.4 38.1
04:20 1024 30.24 853 25.19 10.1 50.2 62 3.2 37.7
04:25 1024 30.24 853 25.19 10 50.1 62 3.1 37.6
04:30 1024 30.24 853 25.19 10.1 50.2 61 3 37.5
04:35 1024 30.24 853 25.19 10.1 50.2 62 3.2 37.8
04:40 1024 30.24 853 25.19 9.8 49.7 64 3.4 38
04:45 1024 30.24 853 25.19 9.6 49.2 64 3.2 37.7
04:50 1024 30.24 853 25.19 9.8 49.6 62 3 37.3
04:55 1024 30.24 853 25.19 10 49.9 63 3.2 37.8
05:00 1024 30.24 853 25.19 10 50 62 3.2 37.8
05:05 1024 30.24 854 25.22 10 50 63 3.3 38
05:10 1024 30.24 853 25.19 9.8 49.7 63 3.2 37.8
05:15 1024 30.24 854 25.22 9.8 49.6 64 3.2 37.8
05:20 1024 30.24 854 25.22 9.9 49.7 63 3.1 37.6
05:25 1025 30.27 854 25.22 10 50.1 62 3.2 37.7
05:30 1025 30.27 854 25.22 10.2 50.4 62 3.3 37.9
05:35 1025 30.27 854 25.22 10.2 50.4 62 3.2 37.8
05:40 1025 30.27 854 25.22 10.3 50.5 62 3.3 37.9
05:45 1025 30.27 854 25.22 10.6 51.1 59 3.1 37.5
05:50 1025 30.27 854 25.22 11 51.7 59 3.2 37.8
05:55 1025 30.27 854 25.22 11.2 52.2 58 3.3 37.9
06:00 1025 30.27 854 25.22 11.4 52.6 57 3.3 38
06:05 1025 30.27 854 25.22 11.8 53.2 56 3.2 37.8
06:10 1025 30.27 854 25.22 12.2 54 53 3.1 37.5
06:15 1025 30.27 854 25.22 12.5 54.5 53 3.3 37.9
06:20 1025 30.27 854 25.22 12.7 54.8 52 3.2 37.7
06:25 1025 30.27 854 25.22 12.8 55.1 52 3.3 37.9
06:30 1025 30.27 854 25.22 12.9 55.3 52 3.3 38
06:35 1025 30.27 854 25.22 13.1 55.5 53 3.9 39
06:40 1025 30.27 854 25.22 13.2 55.7 53 3.7 38.7
06:45 1025 30.27 854 25.22 13.4 56.2 52 3.7 38.7
06:50 1025 30.27 854 25.22 13.7 56.7 50 3.7 38.6
06:55 1025 30.27 854 25.22 14.1 57.3 48 3.3 37.9
07:00 1025 30.27 854 25.22 14.1 57.4 46 2.7 36.9
07:05 1025 30.27 854 25.22 14.5 58.1 44 2.5 36.5
07:10 1025 30.27 854 25.22 14.9 58.7 44 2.8 37
07:15 1025 30.27 854 25.22 14.8 58.7 44 2.6 36.8
07:20 1025 30.27 854 25.22 15.4 59.8 42 2.6 36.7
07:25 1025 30.27 854 25.22 15.3 59.5 42 2.6 36.7
07:30 1025 30.27 854 25.22 15.1 59.2 42 2.4 36.3
07:35 1025 30.27 854 25.22 15.7 60.2 38 1.7 35
07:40 1025 30.27 854 25.22 15.7 60.3 40 2.1 35.8
07:45 1025 30.27 854 25.22 15.5 59.9 41 2.5 36.4
07:50 1025 30.27 854 25.22 15.6 60 39 1.9 35.4
07:55 1025 30.27 854 25.22 15.5 60 39 1.8 35.3
08:00 1025 30.27 855 25.25 15.7 60.3 39 1.9 35.4
08:05 1025 30.27 855 25.25 16.2 61.2 38 1.9 35.5
08:10 1025 30.27 855 25.25 16.6 61.9 38 2.3 36.2
08:15 1025 30.27 855 25.25 16.8 62.2 38 2.6 36.7
08:20 1025 30.27 855 25.25 16.5 61.7 40 2.8 37.1
08:25 1025 30.27 855 25.25 16.2 61.2 40 2.7 36.8
08:30 1025 30.27 855 25.25 16.5 61.7 39 2.7 36.8
08:35 1025 30.27 855 25.25 16.3 61.4 39 2.5 36.5
08:40 1026 30.3 855 25.25 16.5 61.8 38 2.3 36.2
08:45 1026 30.3 855 25.25 16.9 62.4 39 2.8 37.1
08:50 1026 30.3 855 25.25 17.2 63 37 2.7 36.9
08:55 1026 30.3 855 25.25 17.2 63 38 2.7 36.9
09:00 1026 30.3 855 25.25 17.1 62.7 38 2.8 37
09:05 1026 30.3 855 25.25 17.2 62.9 37 2.3 36.2
09:10 1026 30.3 855 25.25 17.3 63.2 37 2.8 37
09:15 1026 30.3 855 25.25 17.8 64 37 2.9 37.1
09:20 1026 30.3 855 25.25 17.4 63.3 38 3 37.3
09:25 1026 30.3 855 25.25 16.7 62.1 39 2.8 37.1
09:30 1026 30.3 855 25.25 17.4 63.4 37 2.7 36.9
09:35 1026 30.3 855 25.25 17.3 63.2 37 2.7 36.8
09:40 1026 30.3 855 25.25 17.4 63.3 37 2.6 36.7
09:45 1026 30.3 855 25.25 17.7 63.9 36 2.6 36.7
09:50 1026 30.3 855 25.25 18.3 65 33 1.7 35.1
09:55 1026 30.3 855 25.25 18.9 66 34 2.6 36.8
10:00 1026 30.3 855 25.25 18.9 66.1 33 2.4 36.4
10:05 1026 30.3 855 25.25 18.6 65.5 33 2.3 36.1
10:10 1026 30.3 855 25.25 18.8 65.8 32 1.9 35.4
10:15 1026 30.3 855 25.25 18.9 66.1 32 2.1 35.8
10:20 1026 30.3 855 25.25 19 66.3 32 1.9 35.5
10:25 1026 30.3 855 25.25 19.5 67.1 31 1.9 35.5
10:30 1026 30.3 855 25.25 19.5 67.1 32 2.6 36.7
10:35 1026 30.3 855 25.25 19.4 66.9 32 2.4 36.3
10:40 1026 30.3 855 25.25 19.2 66.5 34 3 37.4
10:45 1026 30.3 855 25.25 18.8 65.8 33 2.2 35.9
10:50 1026 30.3 855 25.25 18.8 65.8 29 0.6 33.1
10:55 1026 30.3 855 25.25 19.1 66.3 28 0.5 32.9
11:00 1026 30.3 855 25.25 19.5 67 27 0.3 32.5
11:05 1026 30.3 855 25.25 18.9 65.9 29 0.6 33.1
11:10 1026 30.3 855 25.25 19.2 66.5 25 -1 30.3
11:15 1026 30.3 855 25.25 19.2 66.6 26 -0.9 30.4
11:20 1026 30.3 855 25.25 19.7 67.5 24 -1.2 29.9
11:25 1026 30.3 855 25.25 19.8 67.6 24 -1.2 29.8
11:30 1026 30.3 855 25.25 20.3 68.6 23 -1.6 29.1
11:35 1026 30.3 855 25.25 20.8 69.4 21 -2.1 28.2
11:40 1026 30.3 855 25.25 20.7 69.3 22 -1.6 29.2
11:45 1026 30.3 855 25.25 20.3 68.5 22 -2.2 28
11:50 1026 30.3 855 25.25 20.5 68.9 22 -2.1 28.3
11:55 1026 30.3 855 25.25 20.5 68.9 22 -1.5 29.2
12:00 1026 30.3 855 25.25 20.5 68.9 22 -2.1 28.2
12:05 1026 30.3 855 25.25 21.1 69.9 21 -1.9 28.5
12:10 1026 30.3 855 25.25 21.7 71.1 19 -2.6 27.3
12:15 1026 30.3 855 25.25 21.8 71.2 20 -2.1 28.2
12:20 1026 30.3 855 25.25 21.4 70.6 20 -2.1 28.3
12:25 1026 30.3 855 25.25 22.2 72 21 -0.9 30.5
12:30 1026 30.3 855 25.25 22.4 72.4 21 -0.9 30.5
12:35 1026 30.3 855 25.25 21.6 70.9 22 -1.1 30
12:40 1026 30.3 855 25.25 21.5 70.7 21 -1.6 29.1
12:45 1026 30.3 855 25.25 21.7 71 21 -1.3 29.7
12:50 1026 30.3 855 25.25 21.2 70.2 23 -0.6 30.9
12:55 1026 30.3 855 25.25 21.3 70.4 23 -0.4 31.3
13:00 1026 30.3 855 25.25 21.9 71.4 22 -0.6 30.9
13:05 1026 30.3 855 25.25 22.2 71.9 22 -0.3 31.5
13:10 1026 30.3 855 25.25 22.1 71.8 21 -0.8 30.5
13:15 1026 30.3 855 25.25 22 71.7 24 0.6 33
13:20 1026 30.3 855 25.25 22.4 72.3 22 -0.2 31.7
13:25 1026 30.3 855 25.25 22.4 72.4 24 0.8 33.4
13:30 1026 30.3 855 25.25 22.1 71.8 22 -0.4 31.4
13:35 1026 30.3 855 25.25 22.4 72.4 23 0.2 32.4
13:40 1026 30.3 855 25.25 22.4 72.4 23 0.5 32.9
13:45 1026 30.3 855 25.25 22.3 72.2 22 -0.1 31.8
13:50 1025 30.27 855 25.25 22.4 72.2 23 0.6 33
13:55 1025 30.27 855 25.25 22.6 72.8 23 0.4 32.7
14:00 1025 30.27 855 25.25 23 73.4 23 1 33.9
14:05 1025 30.27 855 25.25 23.4 74.2 21 0.1 32.2
14:10 1025 30.27 855 25.25 23 73.5 22 0.7 33.2
14:15 1025 30.27 855 25.25 23.1 73.5 22 0.4 32.7
14:20 1025 30.27 855 25.25 24.1 75.3 21 0.6 33.1
14:25 1025 30.27 855 25.25 24.1 75.3 21 0.8 33.4
14:30 1025 30.27 855 25.25 23.8 74.9 21 0.7 33.3
14:35 1025 30.27 854 25.22 23.3 74 22 0.9 33.6
14:40 1025 30.27 855 25.25 23.3 73.9 22 0.7 33.2
14:45 1025 30.27 855 25.25 23.4 74.1 22 0.6 33.1
14:50 1025 30.27 854 25.22 23.7 74.7 22 0.9 33.7
14:55 1025 30.27 854 25.22 23.8 74.8 22 0.9 33.7
15:00 1025 30.27 854 25.22 23.9 75 21 0.8 33.4
15:05 1025 30.27 854 25.22 23.3 73.9 24 1.6 34.8
15:10 1025 30.27 854 25.22 23.5 74.3 22 0.9 33.6
15:15 1025 30.27 854 25.22 24.4 75.9 22 1.5 34.7
15:20 1025 30.27 854 25.22 24.5 76 21 1 33.9
15:25 1025 30.27 854 25.22 24.4 75.9 22 1.3 34.4
15:30 1025 30.27 854 25.22 24 75.3 21 0.7 33.2
15:35 1025 30.27 854 25.22 24.2 75.6 20 0.4 32.7
15:40 1025 30.27 854 25.22 25 77 20 0.9 33.6
15:45 1025 30.27 854 25.22 25.5 77.8 21 1.6 34.9
15:50 1025 30.27 854 25.22 24.5 76.1 22 1.6 34.8
15:55 1025 30.27 854 25.22 24.3 75.8 22 1.2 34.1
16:00 1025 30.27 854 25.22 23.7 74.6 23 1.8 35.3
16:05 1025 30.27 854 25.22 23.8 74.8 23 1.9 35.3
16:10 1025 30.27 854 25.22 23.9 75.1 22 1.3 34.3
16:15 1025 30.27 854 25.22 24.1 75.4 23 1.8 35.3
16:20 1025 30.27 854 25.22 23.5 74.3 25 2.5 36.6
16:25 1025 30.27 854 25.22 22.9 73.2 23 1 33.9
16:30 1025 30.27 854 25.22 22.8 73 25 1.7 35.1
16:35 1025 30.27 854 25.22 22.8 73 25 2.1 35.8
16:40 1025 30.27 854 25.22 23.5 74.4 23 1.7 35.1
16:45 1025 30.27 854 25.22 23.4 74.1 24 1.9 35.3
16:50 1025 30.27 854 25.22 23 73.5 25 2.1 35.8
16:55 1025 30.27 854 25.22 23.2 73.8 24 1.9 35.4
17:00 1025 30.27 854 25.22 23.1 73.7 24 1.7 35
17:05 1025 30.27 854 25.22 23.8 74.8 23 1.9 35.4
17:10 1025 30.27 854 25.22 24.5 76.1 23 2.4 36.3
17:15 1025 30.27 854 25.22 24.4 75.8 23 2.4 36.2
17:20 1025 30.27 854 25.22 24.5 76.1 23 2.5 36.5
17:25 1025 30.27 854 25.22 24.3 75.7 22 1.5 34.7
17:30 1025 30.27 854 25.22 24.6 76.2 21 1.3 34.3
17:35 1025 30.27 854 25.22 24.8 76.6 21 1.3 34.3
17:40 1025 30.27 854 25.22 24.8 76.6 20 0.6 33.1
17:45 1025 30.27 854 25.22 24.4 76 21 0.9 33.7
17:50 1025 30.27 854 25.22 24.4 75.9 21 1.1 33.9
17:55 1025 30.27 854 25.22 24.3 75.8 21 0.6 33
18:00 1025 30.27 854 25.22 24.2 75.5 22 1.2 34.1
18:05 1025 30.27 854 25.22 24.4 75.8 21 1 33.8
18:10 1025 30.27 854 25.22 24.5 76.2 21 0.7 33.3
18:15 1025 30.27 854 25.22 24.3 75.8 21 0.7 33.2
18:20 1025 30.27 854 25.22 24.2 75.6 21 1.1 33.9
18:25 1025 30.27 854 25.22 23.7 74.7 23 1.3 34.4
18:30 1025 30.27 854 25.22 23.5 74.2 23 1.2 34.1
18:35 1025 30.27 854 25.22 23.4 74 23 1.4 34.5
18:40 1025 30.27 854 25.22 23.2 73.8 24 1.9 35.5
18:45 1025 30.27 854 25.22 23.2 73.7 24 1.6 34.9
18:50 1025 30.27 854 25.22 23.1 73.6 25 2.3 36.1
18:55 1025 30.27 854 25.22 22.9 73.2 25 2.1 35.8
19:00 1025 30.27 854 25.22 22.7 72.8 26 2.3 36.2
19:05 1025 30.27 854 25.22 22.5 72.6 26 2.3 36.1
19:10 1025 30.27 854 25.22 22.4 72.2 27 2.4 36.4
19:15 1025 30.27 854 25.22 22.3 72.1 26 2.2 35.9
19:20 1025 30.27 854 25.22 22.1 71.8 27 2.6 36.6
19:25 1025 30.27 854 25.22 22 71.5 27 2.4 36.3
19:30 1025 30.27 854 25.22 21.9 71.4 27 2.4 36.4
19:35 1025 30.27 854 25.22 21.8 71.2 28 2.4 36.4
19:40 1025 30.27 854 25.22 21.6 70.9 28 2.7 36.8
19:45 1025 30.27 854 25.22 21.5 70.7 29 2.8 37.1
19:50 1025 30.27 854 25.22 21.4 70.5 29 2.6 36.7
19:55 1025 30.27 854 25.22 21.3 70.4 29 2.7 36.8
20:00 1025 30.27 854 25.22 21.2 70.2 30 3.2 37.7
20:05 1025 30.27 854 25.22 21 69.8 31 3.4 38.1
20:10 1025 30.27 854 25.22 20.8 69.4 30 2.9 37.3
20:15 1025 30.27 855 25.25 20.8 69.5 29 2.5 36.5
20:20 1025 30.27 855 25.25 20.8 69.4 30 2.9 37.2
20:25 1025 30.27 855 25.25 20.5 69 31 3.2 37.8
20:30 1026 30.3 855 25.25 20.4 68.7 31 2.9 37.3
20:35 1026 30.3 855 25.25 20.2 68.3 34 4.1 39.5
20:40 1026 30.3 855 25.25 19.7 67.4 41 6.3 43.3
20:45 1026 30.3 855 25.25 18.5 65.3 44 6.1 43
20:50 1026 30.3 855 25.25 17.8 64 46 6.2 43.1
20:55 1026 30.3 855 25.25 17.6 63.7 42 4.5 40.2
21:00 1026 30.3 855 25.25 17.8 64 39 3.9 39.1
21:05 1026 30.3 855 25.25 18 64.3 43 5.2 41.4
21:10 1026 30.3 855 25.25 17.1 62.8 48 6.2 43.1
21:15 1026 30.3 855 25.25 16.1 60.9 50 5.7 42.2
21:20 1026 30.3 855 25.25 16 60.8 49 5.3 41.5
21:25 1026 30.3 856 25.28 16.1 60.9 47 4.9 40.7
21:30 1026 30.3 856 25.28 16.3 61.3 46 4.8 40.6
21:35 1026 30.3 856 25.28 15.9 60.7 50 5.7 42.3
21:40 1026 30.3 856 25.28 15.2 59.4 51 5.3 41.6
21:45 1027 30.33 856 25.28 14.9 58.7 54 5.6 42.2
21:50 1027 30.33 856 25.28 14.4 57.9 55 5.7 42.2
21:55 1027 30.33 856 25.28 14.1 57.3 54 5.1 41.2
22:00 1027 30.33 856 25.28 14.2 57.5 54 5.1 41.2
22:05 1027 30.33 856 25.28 14.3 57.7 54 5.1 41.1
22:10 1027 30.33 856 25.28 14.2 57.5 54 5.1 41.3
22:15 1027 30.33 856 25.28 14.3 57.7 54 5.3 41.5
22:20 1027 30.33 856 25.28 14.3 57.7 53 5 40.9
22:25 1027 30.33 856 25.28 14 57.3 54 5.1 41.1
22:30 1027 30.33 856 25.28 13.7 56.7 54 4.8 40.6
22:35 1027 30.33 856 25.28 14 57.1 53 4.7 40.5
22:40 1027 30.33 856 25.28 13.9 57 53 4.6 40.3
22:45 1027 30.33 856 25.28 14.1 57.4 51 4.1 39.3
22:50 1027 30.33 856 25.28 14.5 58.1 51 4.6 40.2
22:55 1027 30.33 856 25.28 14 57.2 53 4.6 40.3
23:00 1027 30.33 856 25.28 13.8 56.8 53 4.6 40.2
23:05 1027 30.33 856 25.28 13.7 56.6 52 4.2 39.5
23:10 1027 30.33 856 25.28 13.7 56.7 52 4.2 39.6
23:15 1027 30.33 856 25.28 13.6 56.5 54 4.5 40.1
23:20 1027 30.33 856 25.28 13.4 56.2 52 3.9 39.1
23:25 1027 30.33 856 25.28 13.8 56.9 51 3.8 38.9
23:30 1027 30.33 856 25.28 14.1 57.4 51 4.1 39.4
23:35 1027 30.33 856 25.28 14 57.1 51 4 39.1
23:40 1027 30.33 856 25.28 14 57.1 51 4.1 39.3
23:45 1027 30.33 856 25.28 13.7 56.7 52 4.1 39.4
23:50 1027 30.33 857 25.31 13.5 56.2 53 4.2 39.5
23:55 1027 30.33 856 25.28 13.3 56 55 4.5 40.1
24:00 1027 30.33 856 25.28 13 55.4 55 4.2 39.6